Time;durP1;ratioP1;P1;durP2;ratioP2;P2;SDS_P1;SDS_P2;PMS_P1;PMS_P2;Temp;Humidity;BMP_temperature;BMP_pressure;BME280_temperature;BME280_humidity;BME280_pressure;Samples;Min_cycle;Max_cycle;Signal;HPM_P1;HPM_P2
2024/03/05 00:06:24;;;;;;;17.50;14.30;;;;;;;2.72;100.00;98954.52;449593;1237;139541;-60
2024/03/05 00:16:28;;;;;;;19.70;16.80;;;;;;;2.71;100.00;98958.73;450449;1237;139472;-60
2024/03/05 00:26:31;;;;;;;20.20;16.90;;;;;;;2.68;100.00;98957.45;448856;1235;139280;-59
2024/03/05 00:36:35;;;;;;;19.40;15.70;;;;;;;2.71;100.00;98955.62;448617;1233;138949;-58
2024/03/05 00:46:38;;;;;;;19.60;16.10;;;;;;;2.72;100.00;98954.88;449300;1233;139380;-57
2024/03/05 00:56:41;;;;;;;16.60;13.70;;;;;;;2.70;100.00;98953.58;448682;1235;138948;-58
2024/03/05 01:06:45;;;;;;;15.90;13.80;;;;;;;2.67;100.00;98968.04;449749;1237;139466;-57
2024/03/05 01:16:50;;;;;;;15.40;12.90;;;;;;;2.65;100.00;98959.48;448530;1238;139263;-57
2024/03/05 01:26:54;;;;;;;14.50;12.70;;;;;;;2.63;100.00;98965.30;448518;1237;139681;-70
2024/03/05 01:36:58;;;;;;;25.40;18.70;;;;;;;2.55;100.00;98952.65;448720;1234;138802;-69
2024/03/05 01:47:02;;;;;;;18.80;16.00;;;;;;;2.51;100.00;98952.47;449050;1239;139025;-59
2024/03/05 01:57:06;;;;;;;21.70;17.40;;;;;;;2.50;100.00;98952.67;448539;1237;139363;-57
2024/03/05 02:07:12;;;;;;;20.70;16.20;;;;;;;2.48;100.00;98951.52;449540;1233;139514;-58
2024/03/05 02:17:17;;;;;;;22.90;18.00;;;;;;;2.47;100.00;98955.21;448892;1238;139261;-59
2024/03/05 02:27:20;;;;;;;22.00;17.90;;;;;;;2.44;100.00;98952.40;448948;1233;139897;-57
2024/03/05 02:37:38;;;;;;;22.60;17.70;;;;;;;2.40;100.00;98939.75;448459;1238;138974;-58
2024/03/05 02:47:41;;;;;;;15.80;12.70;;;;;;;2.38;100.00;98947.80;449042;1234;139734;-58
2024/03/05 02:57:49;;;;;;;19.10;14.80;;;;;;;2.32;100.00;98955.45;448651;1238;139287;-61
2024/03/05 03:07:54;;;;;;;19.60;14.20;;;;;;;2.31;100.00;98963.96;448344;1238;138799;-58
2024/03/05 03:17:58;;;;;;;19.70;13.10;;;;;;;2.24;100.00;98970.79;448272;1239;139656;-57
2024/03/05 03:28:01;;;;;;;17.60;14.20;;;;;;;2.19;100.00;98978.41;448434;1239;139868;-70
2024/03/05 03:38:05;;;;;;;23.60;16.60;;;;;;;2.15;100.00;98984.44;448243;1237;138826;-69
2024/03/05 03:48:09;;;;;;;20.50;15.70;;;;;;;2.14;100.00;98985.55;448197;1235;139971;-51
2024/03/05 03:58:13;;;;;;;20.20;16.20;;;;;;;2.08;100.00;98986.30;448424;1239;139939;-52
2024/03/05 04:08:16;;;;;;;20.70;16.20;;;;;;;2.01;100.00;98984.33;448881;1238;139409;-69
2024/03/05 04:18:21;;;;;;;22.20;16.10;;;;;;;1.91;100.00;98988.80;448534;1239;139346;-68
2024/03/05 04:28:24;;;;;;;22.50;15.80;;;;;;;1.83;100.00;99001.19;448366;1239;139437;-68
2024/03/05 04:38:28;;;;;;;21.40;16.40;;;;;;;1.81;100.00;99006.12;448495;1238;138859;-70
2024/03/05 04:48:31;;;;;;;19.30;14.20;;;;;;;1.82;100.00;99016.25;449242;1239;139223;-68
2024/03/05 04:58:35;;;;;;;21.20;15.50;;;;;;;1.80;100.00;99021.85;448973;1239;139241;-70
2024/03/05 05:08:39;;;;;;;19.00;13.40;;;;;;;1.81;100.00;99025.44;448696;1238;139309;-71
2024/03/05 05:18:42;;;;;;;17.70;13.90;;;;;;;1.78;100.00;99027.44;448751;1237;140000;-60
2024/03/05 05:28:47;;;;;;;18.70;13.60;;;;;;;1.75;100.00;99032.73;448285;1239;139016;-60
2024/03/05 05:38:53;;;;;;;20.80;15.40;;;;;;;1.73;100.00;99037.11;449039;1238;138966;-58
2024/03/05 05:48:57;;;;;;;22.40;17.00;;;;;;;1.68;100.00;99042.13;448451;1238;139620;-58
2024/03/05 05:59:05;;;;;;;22.70;16.40;;;;;;;1.66;100.00;99048.73;448446;1239;139289;-60
2024/03/05 06:09:10;;;;;;;24.00;17.10;;;;;;;1.65;100.00;99062.43;448438;1238;139370;-61
2024/03/05 06:19:13;;;;;;;19.70;16.80;;;;;;;1.68;100.00;99068.19;448497;1238;138906;-65
2024/03/05 06:29:17;;;;;;;19.10;13.90;;;;;;;1.74;100.00;99074.03;448628;1237;139695;-63
2024/03/05 06:39:29;;;;;;;23.60;17.80;;;;;;;1.82;100.00;99082.17;445148;1239;5103225;-69
2024/03/05 06:49:38;;;;;;;18.00;14.10;;;;;;;1.88;100.00;99095.06;448541;1240;139448;-68
2024/03/05 06:59:41;;;;;;;14.50;12.20;;;;;;;1.97;100.00;99094.09;448912;1235;140057;-66
2024/03/05 07:09:45;;;;;;;18.60;13.10;;;;;;;2.04;100.00;99103.67;448521;1239;139515;-51
2024/03/05 07:19:48;;;;;;;14.90;11.30;;;;;;;2.12;100.00;99113.55;449058;1239;138872;-60
2024/03/05 07:29:52;;;;;;;14.80;11.60;;;;;;;2.19;100.00;99120.20;448835;1238;139370;-61
2024/03/05 07:39:55;;;;;;;14.10;9.90;;;;;;;2.28;100.00;99124.02;449146;1238;140228;-56
2024/03/05 07:49:59;;;;;;;17.40;11.50;;;;;;;2.34;100.00;99124.67;449315;1238;138792;-69
2024/03/05 08:00:08;;;;;;;20.90;16.20;;;;;;;2.51;100.00;99122.98;449258;1238;140429;-64
2024/03/05 08:10:13;;;;;;;19.20;15.30;;;;;;;2.62;100.00;99136.92;448745;1239;139382;-65
2024/03/05 08:20:18;;;;;;;23.40;15.50;;;;;;;2.72;100.00;99141.57;451515;1238;139105;-62
2024/03/05 08:30:23;;;;;;;17.80;13.80;;;;;;;2.87;100.00;99143.72;449774;1238;140014;-66
2024/03/05 08:40:27;;;;;;;18.70;16.60;;;;;;;3.08;100.00;99142.23;448941;1238;139438;-63
2024/03/05 08:50:33;;;;;;;18.10;14.60;;;;;;;3.27;100.00;99145.25;449116;1235;138867;-62
2024/03/05 09:00:38;;;;;;;17.70;14.50;;;;;;;3.44;100.00;99153.73;448995;1236;139950;-62
2024/03/05 09:10:48;;;;;;;22.40;15.40;;;;;;;3.56;100.00;99164.33;448787;1238;138887;-59
2024/03/05 09:20:51;;;;;;;22.70;17.20;;;;;;;3.55;100.00;99173.52;449942;1238;139372;-49
2024/03/05 09:30:56;;;;;;;19.70;14.70;;;;;;;3.62;100.00;99188.83;449308;1238;138803;-59
2024/03/05 09:41:00;;;;;;;20.70;16.20;;;;;;;3.60;100.00;99201.34;448750;1238;139777;-59
2024/03/05 09:51:09;;;;;;;21.70;16.00;;;;;;;3.59;100.00;99207.11;450020;1238;139553;-64
2024/03/05 10:01:13;;;;;;;24.40;18.10;;;;;;;3.60;100.00;99212.26;449766;1238;139946;-69
2024/03/05 10:11:18;;;;;;;24.30;19.20;;;;;;;3.54;100.00;99219.95;449055;1238;139227;-63
2024/03/05 10:21:24;;;;;;;23.40;17.70;;;;;;;3.63;100.00;99226.02;448914;1235;139695;-73
2024/03/05 10:31:29;;;;;;;27.40;18.10;;;;;;;3.68;100.00;99227.86;449803;1238;138908;-63
2024/03/05 10:41:34;;;;;;;26.50;19.90;;;;;;;3.85;100.00;99226.13;449437;1235;139275;-68
2024/03/05 10:51:56;;;;;;;22.40;17.80;;;;;;;3.93;100.00;99230.82;448608;1238;139139;-57
2024/03/05 11:02:04;;;;;;;26.70;17.90;;;;;;;3.98;100.00;99242.58;448656;1238;139455;-62
2024/03/05 11:12:12;;;;;;;26.00;19.30;;;;;;;4.02;100.00;99248.11;449062;1238;139201;-63
2024/03/05 11:22:23;;;;;;;26.90;17.50;;;;;;;4.11;100.00;99251.37;449015;1237;139132;-62
2024/03/05 11:32:28;;;;;;;22.50;16.40;;;;;;;4.23;100.00;99254.46;449017;1238;138825;-69
2024/03/05 11:42:33;;;;;;;28.50;19.00;;;;;;;4.33;100.00;99256.15;450079;1237;140264;-64
2024/03/05 11:52:38;;;;;;;25.20;19.10;;;;;;;4.45;100.00;99254.91;448521;1238;139565;-64
2024/03/05 12:02:42;;;;;;;23.90;19.40;;;;;;;4.52;100.00;99259.84;451289;1237;140124;-60
2024/03/05 12:12:51;;;;;;;28.40;18.60;;;;;;;4.71;100.00;99265.39;450670;1237;139508;-60
2024/03/05 12:22:56;;;;;;;22.60;17.40;;;;;;;4.91;100.00;99267.80;450111;1238;140279;-70
2024/03/05 12:33:00;;;;;;;24.20;18.30;;;;;;;5.07;100.00;99277.12;451575;1235;139553;-80
2024/03/05 12:43:08;;;;;;;20.80;15.60;;;;;;;5.11;100.00;99287.20;449139;1237;139150;-56
2024/03/05 12:53:14;;;;;;;22.50;16.00;;;;;;;5.28;100.00;99297.85;449978;1238;139887;-59
2024/03/05 13:03:18;;;;;;;21.70;15.90;;;;;;;5.28;100.00;99308.96;452816;1236;139005;-57
2024/03/05 13:13:24;;;;;;;20.20;15.40;;;;;;;5.24;100.00;99316.97;448958;1237;139590;-56
2024/03/05 13:23:29;;;;;;;26.50;15.50;;;;;;;5.25;100.00;99331.34;448811;1238;139095;-55
2024/03/05 13:33:33;;;;;;;20.90;11.20;;;;;;;5.21;100.00;99343.84;449037;1237;139293;-69
2024/03/05 13:43:36;;;;;;;18.20;13.30;;;;;;;5.08;100.00;99348.92;449145;1237;139113;-69
2024/03/05 13:53:39;;;;;;;19.70;12.20;;;;;;;4.93;100.00;99349.58;449122;1235;139923;-64
2024/03/05 14:03:43;;;;;;;14.90;10.80;;;;;;;4.78;100.00;99359.09;449195;1237;139773;-61
2024/03/05 14:13:49;;;;;;;15.30;11.70;;;;;;;4.73;100.00;99369.70;448860;1237;139525;-63
2024/03/05 14:23:52;;;;;;;15.60;11.20;;;;;;;4.77;100.00;99383.23;448625;1235;138942;-60
2024/03/05 14:33:55;;;;;;;20.90;13.50;;;;;;;4.80;100.00;99391.29;448940;1235;138863;-61
2024/03/05 14:43:59;;;;;;;14.20;11.10;;;;;;;4.83;100.00;99395.48;449803;1236;139666;-69
2024/03/05 14:54:06;;;;;;;13.40;10.50;;;;;;;4.85;100.00;99397.46;449115;1236;139801;-60
2024/03/05 15:04:10;;;;;;;14.20;11.50;;;;;;;4.84;100.00;99412.60;449213;1237;140062;-63
2024/03/05 15:14:13;;;;;;;10.70;9.20;;;;;;;4.81;100.00;99424.00;449868;1237;138946;-57
2024/03/05 15:24:17;;;;;;;11.40;8.90;;;;;;;4.74;100.00;99434.88;449323;1235;139237;-52
2024/03/05 15:34:20;;;;;;;15.00;10.10;;;;;;;4.66;100.00;99444.06;449051;1238;138824;-57
2024/03/05 15:44:24;;;;;;;13.70;9.50;;;;;;;4.56;100.00;99455.36;449230;1238;138773;-58
2024/03/05 15:54:27;;;;;;;12.90;8.90;;;;;;;4.48;100.00;99465.92;449253;1237;139241;-64
2024/03/05 16:04:32;;;;;;;11.90;9.60;;;;;;;4.41;100.00;99476.42;448411;1238;139235;-60
2024/03/05 16:14:55;;;;;;;15.40;10.00;;;;;;;4.32;100.00;99485.95;448381;1238;138647;-59
2024/03/05 16:24:58;;;;;;;11.30;10.10;;;;;;;4.27;100.00;99500.91;448885;1238;139680;-59
2024/03/05 16:35:03;;;;;;;13.20;10.10;;;;;;;4.21;100.00;99512.77;448471;1238;139113;-59
2024/03/05 16:45:08;;;;;;;19.20;12.80;;;;;;;4.14;100.00;99526.54;448807;1238;138807;-50
2024/03/05 16:55:13;;;;;;;19.80;13.00;;;;;;;4.10;100.00;99537.44;448116;1235;139366;-49
2024/03/05 17:05:18;;;;;;;17.70;13.70;;;;;;;4.02;100.00;99552.45;448269;1238;139003;-59
2024/03/05 17:15:31;;;;;;;14.60;12.50;;;;;;;3.96;100.00;99563.05;448141;1235;139181;-60
2024/03/05 17:25:38;;;;;;;25.00;15.10;;;;;;;3.91;100.00;99563.05;448642;1238;138972;-54
2024/03/05 17:35:44;;;;;;;23.50;16.60;;;;;;;3.86;100.00;99558.03;448440;1238;139256;-54
2024/03/05 17:45:48;;;;;;;19.20;14.20;;;;;;;3.74;100.00;99566.47;448359;1235;139466;-58
2024/03/05 17:55:52;;;;;;;17.40;14.20;;;;;;;3.48;100.00;99570.66;448981;1237;139878;-58
2024/03/05 18:05:56;;;;;;;20.70;16.70;;;;;;;3.08;100.00;99583.25;448185;1239;139463;-52
2024/03/05 18:15:59;;;;;;;18.90;14.50;;;;;;;2.70;100.00;99596.40;448603;1236;139535;-53
2024/03/05 18:26:04;;;;;;;16.60;14.40;;;;;;;2.38;100.00;99601.51;448628;1237;138291;-58
2024/03/05 18:36:10;;;;;;;24.20;17.30;;;;;;;2.11;100.00;99609.37;444393;1235;5114518;-59
2024/03/05 18:46:18;;;;;;;26.70;18.30;;;;;;;1.91;100.00;99625.48;449362;1237;139591;-53
2024/03/05 18:56:22;;;;;;;23.30;15.70;;;;;;;1.81;100.00;99631.80;450175;1235;139114;-51
2024/03/05 19:06:26;;;;;;;24.90;19.50;;;;;;;1.84;100.00;99641.73;448311;1238;139070;-52
2024/03/05 19:16:30;;;;;;;26.20;17.40;;;;;;;1.92;100.00;99648.05;448413;1238;139471;-48
2024/03/05 19:26:34;;;;;;;29.90;18.70;;;;;;;1.98;100.00;99656.54;448384;1237;139488;-61
2024/03/05 19:36:41;;;;;;;23.70;17.60;;;;;;;2.07;100.00;99662.34;448066;1238;139701;-60
2024/03/05 19:46:44;;;;;;;37.20;24.70;;;;;;;2.13;100.00;99652.33;449716;1238;139400;-60
2024/03/05 19:56:48;;;;;;;31.20;21.60;;;;;;;2.22;100.00;99653.80;449656;1239;139357;-53
2024/03/05 20:06:51;;;;;;;37.00;28.70;;;;;;;2.21;100.00;99659.88;449971;1236;140092;-54
2024/03/05 20:16:56;;;;;;;36.00;28.50;;;;;;;2.11;100.00;99664.13;449563;1238;139250;-52
2024/03/05 20:27:02;;;;;;;33.60;25.30;;;;;;;1.95;100.00;99665.61;448813;1238;139992;-54
2024/03/05 20:37:06;;;;;;;38.70;29.10;;;;;;;1.91;100.00;99677.11;448780;1238;138811;-53
2024/03/05 20:47:11;;;;;;;46.00;35.20;;;;;;;1.85;100.00;99676.39;449337;1238;138814;-53
2024/03/05 20:57:14;;;;;;;52.60;39.50;;;;;;;1.75;100.00;99682.36;449445;1239;139430;-47
2024/03/05 21:07:17;;;;;;;49.60;40.60;;;;;;;1.61;100.00;99689.27;449072;1235;138808;-47
2024/03/05 21:17:22;;;;;;;45.70;35.30;;;;;;;1.44;100.00;99700.74;448289;1239;138988;-47
2024/03/05 21:27:25;;;;;;;46.50;34.50;;;;;;;1.16;100.00;99695.87;448708;1237;138949;-49
2024/03/05 21:37:28;;;;;;;45.30;33.70;;;;;;;0.77;100.00;99700.89;449118;1236;139253;-50
2024/03/05 21:47:32;;;;;;;50.20;38.30;;;;;;;0.39;100.00;99701.16;449101;1238;138822;-60
2024/03/05 21:57:38;;;;;;;49.10;37.70;;;;;;;0.06;100.00;99706.62;449861;1238;138992;-59
2024/03/05 22:07:44;;;;;;;47.80;35.30;;;;;;;-0.19;100.00;99710.34;450330;1239;139380;-59
2024/03/05 22:17:47;;;;;;;67.00;42.20;;;;;;;-0.45;100.00;99720.43;448542;1235;139544;-59
2024/03/05 22:27:53;;;;;;;62.80;45.90;;;;;;;-0.67;100.00;99732.29;448475;1238;139161;-52
2024/03/05 22:37:56;;;;;;;68.90;42.70;;;;;;;-0.75;100.00;99735.17;448763;1236;139263;-54
2024/03/05 22:48:01;;;;;;;62.80;43.20;;;;;;;-0.91;100.00;99740.55;448623;1236;140311;-59
2024/03/05 22:58:05;;;;;;;61.40;40.30;;;;;;;-1.13;100.00;99739.15;449347;1236;139555;-59
2024/03/05 23:08:09;;;;;;;56.00;37.80;;;;;;;-1.33;100.00;99742.16;449461;1238;138974;-54
2024/03/05 23:18:13;;;;;;;49.20;31.20;;;;;;;-1.46;100.00;99738.36;448737;1239;138998;-53
2024/03/05 23:28:16;;;;;;;45.00;32.10;;;;;;;-1.45;100.00;99745.56;448810;1235;139805;-59
2024/03/05 23:38:21;;;;;;;48.70;33.70;;;;;;;-1.28;100.00;99749.65;448639;1239;139166;-58
2024/03/05 23:48:25;;;;;;;46.40;32.90;;;;;;;-1.03;100.00;99757.39;450441;1239;139026;-52
2024/03/05 23:58:30;;;;;;;56.30;37.90;;;;;;;-0.80;100.00;99763.42;449990;1237;140941;-51
